Time;durP1;ratioP1;P1;durP2;ratioP2;P2;SDS_P1;SDS_P2;PMS_P1;PMS_P2;Temp;Humidity;BMP_temperature;BMP_pressure;BME280_temperature;BME280_humidity;BME280_pressure;Samples;Min_cycle;Max_cycle;Signal;HPM_P1;HPM_P2
2020/12/04 00:01:07;;;;;;;4.30;1.27;;;;;;;13.82;50.52;99683.81;4991275;28;20114;-48
2020/12/04 00:03:33;;;;;;;5.22;1.85;;;;;;;13.85;50.37;99683.22;4994200;28;20041;-46
2020/12/04 00:05:58;;;;;;;2.28;1.67;;;;;;;13.70;51.40;99675.31;4992124;28;20049;-47
2020/12/04 00:08:24;;;;;;;5.55;2.28;;;;;;;13.67;51.04;99675.88;4992790;28;20089;-51
2020/12/04 00:10:49;;;;;;;5.65;1.50;;;;;;;13.68;51.77;99662.13;4995775;28;20089;-48
2020/12/04 00:13:15;;;;;;;4.75;1.20;;;;;;;13.69;51.28;99655.66;4998645;28;20185;-49
2020/12/04 00:15:40;;;;;;;4.47;2.28;;;;;;;13.68;51.71;99642.47;4996813;28;20045;-51
2020/12/04 00:18:05;;;;;;;6.75;2.10;;;;;;;13.67;51.77;99660.50;4998212;28;20046;-50
2020/12/04 00:20:31;;;;;;;5.68;1.55;;;;;;;13.60;52.44;99650.09;4997281;28;20030;-51
2020/12/04 00:22:56;;;;;;;2.22;2.03;;;;;;;13.61;51.24;99627.44;4997241;28;20424;-51
2020/12/04 00:25:22;;;;;;;7.18;2.30;;;;;;;13.60;50.30;99633.13;4998760;28;20053;-49
2020/12/04 00:27:47;;;;;;;2.28;1.05;;;;;;;13.50;50.02;99631.34;4994643;28;20045;-48
2020/12/04 00:30:13;;;;;;;9.25;2.42;;;;;;;13.52;50.65;99621.09;4998091;28;20034;-47
2020/12/04 00:32:38;;;;;;;6.38;1.10;;;;;;;13.42;51.92;99608.53;4989566;28;20078;-48
2020/12/04 00:35:04;;;;;;;0.93;0.60;;;;;;;13.46;51.33;99600.69;4997442;28;20084;-51
2020/12/04 00:37:29;;;;;;;2.38;1.40;;;;;;;13.53;50.48;99609.22;4997290;28;20038;-46
2020/12/04 00:39:55;;;;;;;3.55;2.33;;;;;;;13.52;49.60;99599.53;4996646;28;20107;-47
2020/12/04 00:42:20;;;;;;;2.58;1.30;;;;;;;13.59;49.47;99591.13;4997880;28;20038;-47
2020/12/04 00:44:46;;;;;;;6.95;1.67;;;;;;;13.58;49.08;99593.00;4996731;28;20117;-51
2020/12/04 00:47:11;;;;;;;10.57;2.40;;;;;;;13.56;49.18;99586.31;4997713;28;20060;-49
2020/12/04 00:49:36;;;;;;;5.32;2.28;;;;;;;13.49;50.03;99567.81;4996337;28;20030;-47
2020/12/04 00:52:02;;;;;;;6.05;1.67;;;;;;;13.52;49.41;99561.06;4996788;28;20188;-48
2020/12/04 00:54:27;;;;;;;2.25;1.23;;;;;;;13.50;49.45;99566.72;4997482;28;20034;-46
2020/12/04 00:56:53;;;;;;;0.50;0.40;;;;;;;13.36;48.16;99558.53;4996408;28;20030;-47
2020/12/04 00:59:18;;;;;;;6.57;2.25;;;;;;;13.57;47.48;99542.16;4997879;28;20036;-51
2020/12/04 01:01:44;;;;;;;5.00;1.75;;;;;;;13.57;48.12;99536.75;4996082;28;20049;-49
2020/12/04 01:04:09;;;;;;;1.08;0.70;;;;;;;13.56;47.12;99540.53;4997623;28;20507;-48
2020/12/04 01:06:36;;;;;;;2.25;0.95;;;;;;;13.54;47.86;99526.56;4993323;28;20574;-46
2020/12/04 01:09:04;;;;;;;2.28;0.85;;;;;;;13.43;48.57;99536.66;4995669;28;20584;-49
2020/12/04 01:11:30;;;;;;;14.75;1.98;;;;;;;13.50;48.68;99531.72;4994515;28;20045;-46
2020/12/04 01:13:56;;;;;;;4.55;1.48;;;;;;;13.54;49.06;99515.78;4995629;28;20043;-49
2020/12/04 01:16:21;;;;;;;2.85;1.40;;;;;;;13.45;49.67;99512.09;4997565;28;20030;-49
2020/12/04 01:18:47;;;;;;;3.55;1.70;;;;;;;13.38;48.55;99526.72;4996384;28;20118;-51
2020/12/04 01:21:13;;;;;;;2.08;1.27;;;;;;;13.31;49.16;99525.47;4997206;28;20045;-48
2020/12/04 01:23:39;;;;;;;7.68;1.55;;;;;;;13.24;47.35;99515.03;4996172;28;20073;-46
2020/12/04 01:26:05;;;;;;;11.32;1.92;;;;;;;13.17;48.87;99526.13;4992322;28;20057;-48
2020/12/04 01:28:31;;;;;;;5.85;1.88;;;;;;;13.32;48.67;99522.47;4994448;28;20133;-48
2020/12/04 01:30:56;;;;;;;5.63;2.42;;;;;;;13.47;47.73;99524.22;4995560;28;20113;-47
2020/12/04 01:33:22;;;;;;;4.03;1.45;;;;;;;13.50;47.95;99522.81;4997263;28;20042;-49
2020/12/04 01:35:47;;;;;;;3.97;1.40;;;;;;;13.50;48.41;99518.25;4995441;28;20482;-47
2020/12/04 01:38:13;;;;;;;1.73;0.90;;;;;;;13.43;48.50;99513.22;4997212;28;20475;-47
2020/12/04 01:40:38;;;;;;;5.35;1.65;;;;;;;13.34;49.08;99512.25;4995465;28;20081;-49
2020/12/04 01:43:04;;;;;;;2.38;1.17;;;;;;;13.29;47.18;99508.75;4996401;28;20050;-47
2020/12/04 01:45:34;;;;;;;6.43;1.33;;;;;;;13.39;47.20;99506.81;4996041;28;20399;-47
2020/12/04 01:48:00;;;;;;;3.75;1.63;;;;;;;13.47;48.24;99516.13;4995894;28;20047;-48
2020/12/04 01:50:25;;;;;;;3.45;1.40;;;;;;;13.62;47.33;99496.28;4996876;28;20038;-46
2020/12/04 01:52:51;;;;;;;3.45;1.50;;;;;;;13.60;47.90;99483.13;4995395;28;20045;-49
2020/12/04 01:55:17;;;;;;;2.10;1.08;;;;;;;13.60;47.96;99471.53;4996923;28;20035;-48
2020/12/04 01:57:46;;;;;;;4.90;2.70;;;;;;;13.23;48.79;99476.53;4995201;28;20050;-45
2020/12/04 02:00:11;;;;;;;8.02;1.67;;;;;;;13.48;48.55;99471.16;4996754;28;20034;-49
2020/12/04 02:02:37;;;;;;;3.45;1.55;;;;;;;13.38;49.20;99453.25;4995196;28;20041;-46
2020/12/04 02:05:02;;;;;;;2.63;1.88;;;;;;;13.33;48.27;99445.25;4995539;28;20077;-47
2020/12/04 02:07:58;;;;;;;2.50;1.58;;;;;;;13.38;47.63;99454.03;4994810;28;20495;-46
2020/12/04 02:10:30;;;;;;;3.50;1.67;;;;;;;13.27;47.95;99430.19;4990263;28;20133;-49
2020/12/04 02:12:57;;;;;;;2.47;1.10;;;;;;;13.40;47.09;99441.09;4991946;28;20534;-46
2020/12/04 02:15:23;;;;;;;2.58;1.23;;;;;;;13.38;48.41;99437.09;4991927;28;20092;-47
2020/12/04 02:17:55;;;;;;;1.13;0.65;;;;;;;13.35;49.23;99441.16;4991071;28;20455;-46
2020/12/04 02:20:20;;;;;;;7.93;1.85;;;;;;;13.40;48.58;99461.84;4994323;28;20075;-46
2020/12/04 02:22:46;;;;;;;1.63;1.08;;;;;;;13.41;49.05;99474.19;4994475;28;20066;-50
2020/12/04 02:25:11;;;;;;;8.55;1.33;;;;;;;13.51;48.55;99471.38;4996350;28;20451;-46
2020/12/04 02:27:50;;;;;;;10.30;1.33;;;;;;;13.61;47.34;99455.09;4994535;28;20038;-46
2020/12/04 02:30:24;;;;;;;6.93;1.90;;;;;;;13.31;49.14;99468.94;4992771;28;20041;-47
2020/12/04 02:32:49;;;;;;;1.67;0.88;;;;;;;13.45;47.76;99471.72;4991867;28;20046;-46
2020/12/04 02:35:15;;;;;;;3.97;1.65;;;;;;;13.51;47.97;99460.59;4991799;28;20042;-47
2020/12/04 02:37:41;;;;;;;22.55;2.83;;;;;;;13.49;48.02;99452.00;4991836;28;20038;-51
2020/12/04 02:40:06;;;;;;;2.22;1.00;;;;;;;13.45;48.93;99461.78;4991818;28;20030;-47
2020/12/04 02:42:32;;;;;;;6.72;0.90;;;;;;;13.57;47.33;99459.47;4991758;28;20038;-49
2020/12/04 02:44:57;;;;;;;4.55;2.20;;;;;;;13.69;47.38;99463.59;4991633;28;20387;-45
2020/12/04 02:47:26;;;;;;;6.35;1.02;;;;;;;13.58;48.51;99455.66;4991386;28;20396;-46
2020/12/04 02:49:51;;;;;;;1.10;0.45;;;;;;;13.50;48.04;99433.97;4991526;28;20470;-49
2020/12/04 02:52:23;;;;;;;3.45;1.02;;;;;;;13.52;48.41;99429.91;4991418;28;20066;-47
2020/12/04 02:54:49;;;;;;;4.88;1.00;;;;;;;13.46;49.17;99432.94;4991755;28;20035;-46
2020/12/04 02:57:15;;;;;;;4.32;1.60;;;;;;;13.52;48.41;99432.59;4991317;28;20053;-48
2020/12/04 02:59:41;;;;;;;1.00;0.55;;;;;;;13.43;51.97;99418.19;4991543;28;20065;-48
2020/12/04 03:02:06;;;;;;;3.70;0.88;;;;;;;13.58;47.49;99409.09;4991291;28;20400;-48
2020/12/04 03:04:32;;;;;;;1.20;0.65;;;;;;;13.61;48.68;99403.91;4991535;28;20102;-47
2020/12/04 03:06:57;;;;;;;5.57;0.77;;;;;;;13.61;49.60;99395.03;4991474;28;20122;-48
2020/12/04 03:09:22;;;;;;;2.95;1.00;;;;;;;13.50;52.23;99399.78;4991424;28;20542;-46
2020/12/04 03:11:48;;;;;;;6.07;1.73;;;;;;;13.38;49.99;99380.56;4991368;28;20117;-47
2020/12/04 03:14:13;;;;;;;4.70;2.10;;;;;;;13.52;48.21;99389.50;4991308;28;20030;-47
2020/12/04 03:16:39;;;;;;;0.85;0.55;;;;;;;13.50;49.52;99366.66;4991235;28;20037;-46
2020/12/04 03:19:04;;;;;;;3.45;1.35;;;;;;;13.52;49.89;99378.75;4991527;28;20169;-48
2020/12/04 03:21:30;;;;;;;1.40;0.50;;;;;;;13.35;51.44;99360.41;4991065;28;20071;-45
2020/12/04 03:23:56;;;;;;;2.25;0.60;;;;;;;13.39;49.79;99374.06;4991553;28;20128;-46
2020/12/04 03:26:21;;;;;;;1.25;0.57;;;;;;;13.47;49.45;99376.13;4990955;28;20407;-48
2020/12/04 03:28:47;;;;;;;4.32;1.13;;;;;;;13.49;48.13;99356.97;4991127;28;20042;-47
2020/12/04 03:31:12;;;;;;;0.50;0.30;;;;;;;13.51;48.22;99350.19;4991194;28;20129;-45
2020/12/04 03:33:38;;;;;;;17.00;1.08;;;;;;;13.50;48.22;99351.31;4991366;28;20084;-47
2020/12/04 03:36:04;;;;;;;8.45;2.20;;;;;;;13.53;47.80;99337.25;4991918;28;20459;-47
2020/12/04 03:38:29;;;;;;;2.13;0.40;;;;;;;13.55;50.46;99329.69;4995362;28;20479;-46
2020/12/04 03:40:54;;;;;;;2.20;0.73;;;;;;;13.40;52.37;99314.56;4994661;28;20061;-47
2020/12/04 03:43:20;;;;;;;2.45;1.00;;;;;;;13.49;48.99;99316.59;4994870;28;20767;-46
2020/12/04 03:45:45;;;;;;;9.07;1.25;;;;;;;13.54;47.88;99313.81;4994694;28;20171;-47
2020/12/04 03:48:11;;;;;;;0.65;0.28;;;;;;;13.55;49.44;99318.09;4998732;28;20391;-50
2020/12/04 03:50:36;;;;;;;8.93;1.67;;;;;;;13.48;48.90;99302.34;4997420;28;20379;-46
2020/12/04 03:53:02;;;;;;;12.75;1.17;;;;;;;13.54;48.26;99308.44;4998048;28;20041;-47
2020/12/04 03:55:27;;;;;;;9.38;2.45;;;;;;;13.66;47.70;99308.78;4999026;28;20038;-46
2020/12/04 03:57:53;;;;;;;3.17;0.88;;;;;;;13.59;48.60;99292.19;4997670;28;20070;-45
2020/12/04 04:00:18;;;;;;;4.95;1.15;;;;;;;13.53;48.69;99302.22;4998831;28;20037;-47
2020/12/04 04:02:44;;;;;;;8.50;1.73;;;;;;;13.55;49.08;99292.00;4997611;28;20042;-46
2020/12/04 04:05:09;;;;;;;4.45;1.40;;;;;;;13.65;49.94;99274.06;4997321;28;20034;-46
2020/12/04 04:07:35;;;;;;;6.03;1.58;;;;;;;13.73;48.44;99265.31;4995516;28;20180;-46
2020/12/04 04:10:00;;;;;;;2.40;1.02;;;;;;;13.71;48.80;99267.47;4995057;28;20384;-47
2020/12/04 04:12:26;;;;;;;0.52;0.40;;;;;;;13.72;50.13;99263.69;4996850;28;20038;-46
2020/12/04 04:14:51;;;;;;;2.22;1.15;;;;;;;13.64;49.28;99257.09;4995385;28;20062;-50
2020/12/04 04:17:17;;;;;;;5.57;0.88;;;;;;;13.65;46.44;99252.50;4993358;28;20054;-47
2020/12/04 04:19:42;;;;;;;2.72;0.93;;;;;;;13.63;47.24;99233.16;4997145;28;20145;-47
2020/12/04 04:22:08;;;;;;;1.27;0.70;;;;;;;13.65;47.89;99237.16;4996550;28;20038;-46
2020/12/04 04:24:33;;;;;;;8.20;1.88;;;;;;;13.47;50.95;99238.81;4996607;28;20430;-47
2020/12/04 04:26:59;;;;;;;5.07;1.38;;;;;;;13.61;49.84;99253.09;4994944;28;20058;-46
2020/12/04 04:29:24;;;;;;;3.47;1.13;;;;;;;13.54;49.24;99268.03;4992197;28;20077;-49
2020/12/04 04:31:52;;;;;;;2.15;1.48;;;;;;;13.54;52.93;99257.28;4993771;28;20041;-47
2020/12/04 04:34:18;;;;;;;1.92;0.88;;;;;;;13.54;50.38;99279.59;4993622;28;20476;-46
2020/12/04 04:36:44;;;;;;;1.00;0.52;;;;;;;13.45;52.60;99265.22;4993856;28;20034;-45
2020/12/04 04:39:10;;;;;;;7.93;2.22;;;;;;;13.47;52.48;99257.66;4993513;28;20035;-46
2020/12/04 04:41:35;;;;;;;4.15;2.17;;;;;;;13.42;53.70;99255.03;4990360;28;20042;-47
2020/12/04 04:44:01;;;;;;;2.20;0.77;;;;;;;13.40;53.61;99246.47;4997110;28;20467;-49
2020/12/04 04:46:51;;;;;;;10.85;2.45;;;;;;;13.48;52.09;99259.25;4997742;28;20450;-47
2020/12/04 04:49:28;;;;;;;5.50;0.98;;;;;;;13.55;52.45;99259.69;4997189;28;20070;-46
2020/12/04 04:51:57;;;;;;;7.38;2.03;;;;;;;13.60;52.21;99256.91;4996582;28;20080;-46
2020/12/04 04:54:24;;;;;;;4.70;2.40;;;;;;;13.57;53.02;99245.91;4998142;28;20026;-45
2020/12/04 04:56:51;;;;;;;12.98;3.30;;;;;;;13.57;54.78;99254.78;4996294;28;20364;-51
2020/12/04 04:59:20;;;;;;;11.70;3.22;;;;;;;13.55;53.93;99242.69;4998045;28;20034;-48
2020/12/04 05:01:50;;;;;;;4.18;1.52;;;;;;;13.53;55.21;99232.22;4996395;28;20074;-50
2020/12/04 05:04:16;;;;;;;4.47;2.17;;;;;;;13.52;55.78;99243.31;4997744;28;20030;-48
2020/12/04 05:06:42;;;;;;;2.10;1.25;;;;;;;13.55;54.81;99242.69;4996461;28;20034;-46
2020/12/04 05:09:14;;;;;;;9.50;2.63;;;;;;;13.52;54.97;99254.88;4997608;28;20483;-46
2020/12/04 05:11:53;;;;;;;8.88;1.75;;;;;;;13.46;55.30;99239.09;4990464;28;20525;-45
2020/12/04 05:14:23;;;;;;;5.78;2.70;;;;;;;13.48;55.48;99237.72;4997643;28;20348;-45
2020/12/04 05:16:52;;;;;;;10.02;3.22;;;;;;;13.45;56.25;99237.47;4996125;28;20460;-48
2020/12/04 05:19:28;;;;;;;2.95;1.75;;;;;;;13.48;55.81;99229.66;4997108;28;20482;-48
2020/12/04 05:21:54;;;;;;;4.07;2.50;;;;;;;13.56;56.18;99242.41;4996068;28;20049;-46
2020/12/04 05:24:25;;;;;;;3.47;1.67;;;;;;;13.48;56.60;99236.91;4989799;28;20033;-46
2020/12/04 05:26:51;;;;;;;7.18;3.33;;;;;;;13.48;55.80;99237.72;4995909;28;20038;-49
2020/12/04 05:29:18;;;;;;;6.55;1.50;;;;;;;13.53;56.20;99226.84;4997165;28;20057;-46
2020/12/04 05:31:43;;;;;;;9.20;3.05;;;;;;;13.57;55.68;99225.16;4995826;28;20041;-51
2020/12/04 05:34:19;;;;;;;9.98;2.85;;;;;;;13.45;56.35;99222.16;4997293;28;20042;-46
2020/12/04 05:36:46;;;;;;;2.63;1.48;;;;;;;13.53;55.84;99232.22;4990148;28;20030;-46
2020/12/04 05:39:12;;;;;;;9.60;2.72;;;;;;;13.47;56.74;99203.00;4997067;28;20120;-47
2020/12/04 05:42:04;;;;;;;5.32;1.55;;;;;;;13.57;55.24;99238.63;4995333;28;20058;-45
2020/12/04 05:44:29;;;;;;;;;;;;;;;13.60;54.37;99213.81;4995782;28;20125;-46
2020/12/04 05:46:55;;;;;;;5.63;2.08;;;;;;;13.54;54.16;99193.44;4995397;28;19960;-45
2020/12/04 05:49:21;;;;;;;9.77;1.40;;;;;;;13.43;55.30;99189.34;4996993;28;20111;-47
2020/12/04 05:51:51;;;;;;;5.25;1.67;;;;;;;13.46;55.36;99204.88;4995290;28;20483;-46
2020/12/04 05:54:18;;;;;;;1.58;0.93;;;;;;;13.42;55.17;99185.84;4997103;28;20096;-46
2020/12/04 05:56:50;;;;;;;4.25;0.98;;;;;;;13.41;56.17;99191.50;4995578;28;20451;-45
2020/12/04 05:59:21;;;;;;;12.82;1.75;;;;;;;13.39;54.18;99193.69;4996579;28;20051;-50
2020/12/04 06:01:46;;;;;;;3.47;1.10;;;;;;;13.45;54.12;99181.75;4995255;28;20038;-46
2020/12/04 06:04:16;;;;;;;4.47;2.17;;;;;;;13.54;53.72;99171.09;4994445;28;20050;-49
2020/12/04 06:06:44;;;;;;;8.70;1.45;;;;;;;13.49;54.71;99160.44;4992876;28;20034;-53
2020/12/04 06:09:10;;;;;;;1.40;0.88;;;;;;;13.59;54.41;99155.66;4994790;28;20192;-45
2020/12/04 06:11:42;;;;;;;9.07;2.05;;;;;;;13.56;53.04;99158.94;4991571;28;20177;-49
2020/12/04 06:14:22;;;;;;;5.80;1.52;;;;;;;13.58;53.72;99148.66;4993134;28;20043;-48
2020/12/04 06:17:03;;;;;;;8.60;2.03;;;;;;;13.60;53.01;99165.34;4989798;28;20062;-48
2020/12/04 06:19:35;;;;;;;9.80;1.60;;;;;;;13.58;53.17;99164.03;4990779;28;20134;-48
2020/12/04 06:22:10;;;;;;;4.45;2.15;;;;;;;13.60;53.27;99175.28;4992681;28;20259;-49
2020/12/04 06:24:48;;;;;;;10.43;1.75;;;;;;;13.56;54.51;99171.59;4988674;28;20034;-46
2020/12/04 06:27:40;;;;;;;4.93;1.35;;;;;;;13.51;54.59;99169.78;4996311;28;20095;-47
2020/12/04 06:30:08;;;;;;;6.25;1.88;;;;;;;13.65;53.51;99145.56;4995821;28;20030;-49
2020/12/04 06:32:38;;;;;;;4.25;1.75;;;;;;;13.70;53.33;99166.25;4994833;28;20042;-46
2020/12/04 06:35:05;;;;;;;7.28;1.38;;;;;;;13.50;53.95;99146.69;4994696;28;20026;-49
2020/12/04 06:37:35;;;;;;;2.13;1.20;;;;;;;13.59;52.96;99130.63;4991456;28;20034;-49
2020/12/04 06:40:24;;;;;;;3.20;0.80;;;;;;;13.48;55.36;99119.25;4991473;28;20077;-46
2020/12/04 06:42:49;;;;;;;3.47;1.23;;;;;;;13.55;54.43;99127.72;4973815;28;20046;-48
2020/12/04 06:45:15;;;;;;;4.60;1.65;;;;;;;13.58;53.99;99137.09;4994772;28;20038;-47
2020/12/04 06:47:40;;;;;;;1.30;0.73;;;;;;;13.56;54.54;99148.16;4994569;28;20040;-47
2020/12/04 06:50:06;;;;;;;3.55;1.65;;;;;;;13.55;54.55;99167.31;4995376;28;20442;-49
2020/12/04 06:52:31;;;;;;;6.30;2.03;;;;;;;13.56;54.01;99164.31;4994580;28;20129;-50
2020/12/04 06:54:57;;;;;;;2.78;1.30;;;;;;;13.68;54.05;99161.16;4994308;28;20022;-46
2020/12/04 06:57:23;;;;;;;3.42;1.73;;;;;;;13.73;54.29;99169.13;4995618;28;20081;-47
2020/12/04 06:59:49;;;;;;;3.13;1.35;;;;;;;13.67;54.31;99148.75;4994236;28;20038;-47
2020/12/04 07:02:19;;;;;;;8.35;2.13;;;;;;;13.70;54.12;99153.56;4992049;28;20038;-49
2020/12/04 07:04:50;;;;;;;1.83;0.88;;;;;;;13.81;54.06;99146.09;4994347;28;20594;-45
2020/12/04 07:07:26;;;;;;;3.63;0.75;;;;;;;13.76;54.89;99130.00;4995941;28;20050;-47
2020/12/04 07:09:57;;;;;;;3.50;0.73;;;;;;;13.81;54.04;99138.00;4991156;28;20043;-49
2020/12/04 07:12:25;;;;;;;3.03;1.50;;;;;;;13.72;53.89;99127.13;4993760;28;20129;-45
2020/12/04 07:14:53;;;;;;;4.28;2.33;;;;;;;13.73;54.40;99136.81;4994756;28;20049;-46
2020/12/04 07:17:20;;;;;;;3.42;2.03;;;;;;;13.82;54.29;99149.59;4997837;28;20052;-47
2020/12/04 07:19:50;;;;;;;5.35;1.67;;;;;;;13.88;54.38;99159.16;4995321;28;20038;-50
2020/12/04 07:22:16;;;;;;;5.00;1.00;;;;;;;13.78;54.73;99150.19;4998184;28;20038;-51
2020/12/04 07:24:43;;;;;;;5.53;2.45;;;;;;;13.72;55.12;99150.56;4996756;28;20619;-45
2020/12/04 07:27:13;;;;;;;4.47;1.73;;;;;;;13.88;54.61;99153.78;4995016;28;20030;-45
2020/12/04 07:29:39;;;;;;;8.02;2.25;;;;;;;13.85;54.23;99135.50;4992081;28;20455;-45
2020/12/04 07:32:05;;;;;;;8.07;1.85;;;;;;;13.89;54.80;99145.38;4998649;28;20039;-46
2020/12/04 07:34:35;;;;;;;3.47;1.20;;;;;;;13.88;55.28;99141.09;4998447;28;20121;-49
2020/12/04 07:37:02;;;;;;;14.05;3.35;;;;;;;13.73;55.33;99126.03;4998107;28;20022;-47
2020/12/04 07:39:30;;;;;;;4.20;1.58;;;;;;;13.81;55.17;99127.22;4998877;28;20045;-47
2020/12/04 07:41:56;;;;;;;13.48;1.95;;;;;;;13.87;56.44;99142.19;5001683;28;20029;-49
2020/12/04 07:44:29;;;;;;;5.88;1.70;;;;;;;13.72;56.66;99153.28;5005268;28;20033;-48
2020/12/04 07:47:03;;;;;;;14.93;1.80;;;;;;;13.79;56.12;99162.53;4997607;28;20085;-49
2020/12/04 07:49:29;;;;;;;5.10;2.13;;;;;;;13.86;55.20;99156.75;4993756;28;20022;-46
2020/12/04 07:52:11;;;;;;;7.03;1.95;;;;;;;13.89;55.84;99161.56;4996905;28;20037;-45
2020/12/04 07:54:37;;;;;;;7.28;1.75;;;;;;;13.88;55.58;99169.94;4996064;28;20046;-48
2020/12/04 07:57:04;;;;;;;4.32;2.17;;;;;;;13.97;55.86;99162.75;4995209;28;20053;-46
2020/12/04 07:59:32;;;;;;;4.35;3.03;;;;;;;13.97;55.48;99182.41;4996437;28;20092;-46
2020/12/04 08:02:00;;;;;;;5.82;2.50;;;;;;;13.93;55.89;99170.63;4996185;28;20146;-44
2020/12/04 08:04:27;;;;;;;5.10;2.08;;;;;;;13.92;55.02;99165.53;4991615;28;20026;-44
2020/12/04 08:07:11;;;;;;;7.72;2.85;;;;;;;13.94;56.28;99149.88;4992739;28;20042;-46
2020/12/04 08:09:41;;;;;;;4.38;1.70;;;;;;;13.97;55.29;99160.88;4990008;28;20132;-44
2020/12/04 08:12:12;;;;;;;7.20;2.90;;;;;;;13.93;55.61;99157.16;4996759;28;20514;-45
2020/12/04 08:14:39;;;;;;;12.07;1.75;;;;;;;14.01;55.42;99179.91;4990773;28;20605;-45
2020/12/04 08:17:06;;;;;;;2.25;1.25;;;;;;;14.07;55.53;99161.75;4993902;28;20766;-45
2020/12/04 08:19:34;;;;;;;4.10;2.08;;;;;;;14.05;56.05;99159.34;4994143;28;20041;-45
2020/12/04 08:22:02;;;;;;;3.05;1.80;;;;;;;14.03;56.16;99155.38;4993511;28;20041;-44
2020/12/04 08:24:29;;;;;;;10.60;1.80;;;;;;;14.04;56.02;99146.19;4993813;28;20034;-46
2020/12/04 08:27:01;;;;;;;3.85;2.05;;;;;;;14.06;56.25;99154.75;4993588;28;20372;-44
2020/12/04 08:29:27;;;;;;;2.58;0.80;;;;;;;14.09;56.57;99159.53;4992406;28;20566;-45
2020/12/04 08:32:03;;;;;;;3.03;1.38;;;;;;;14.08;56.72;99164.16;4993784;28;20042;-45
2020/12/04 08:34:29;;;;;;;4.10;1.63;;;;;;;14.04;56.20;99156.94;4995412;28;20033;-48
2020/12/04 08:37:04;;;;;;;8.80;1.80;;;;;;;14.06;56.07;99155.56;4996825;28;20386;-44
2020/12/04 08:39:37;;;;;;;6.05;1.58;;;;;;;13.99;57.20;99153.28;4992803;28;20043;-42
2020/12/04 08:42:33;;;;;;;4.40;1.92;;;;;;;14.09;56.65;99151.47;4993306;28;20630;-43
2020/12/04 08:45:08;;;;;;;9.77;4.32;;;;;;;14.21;56.56;99162.53;4989040;28;20034;-42
2020/12/04 08:47:38;;;;;;;6.97;3.63;;;;;;;14.19;56.30;99164.72;4993292;28;20096;-47
2020/12/04 08:50:11;;;;;;;6.90;2.85;;;;;;;14.28;55.61;99162.13;4993450;28;20395;-43
2020/12/04 08:52:40;;;;;;;5.75;1.63;;;;;;;14.18;56.04;99152.34;4990288;28;20101;-47
2020/12/04 08:55:11;;;;;;;4.93;3.00;;;;;;;14.24;55.86;99153.06;4997482;28;20046;-44
2020/12/04 08:57:37;;;;;;;2.47;1.98;;;;;;;14.20;56.62;99155.56;4990361;28;20088;-44
2020/12/04 09:00:17;;;;;;;7.85;2.58;;;;;;;14.28;56.34;99154.81;4997208;28;20093;-44
2020/12/04 09:02:43;;;;;;;6.93;2.75;;;;;;;14.25;56.11;99136.56;4991048;28;20038;-50
2020/12/04 09:05:13;;;;;;;13.05;3.40;;;;;;;14.40;55.39;99150.81;4997652;28;20113;-47
2020/12/04 09:07:39;;;;;;;4.40;1.90;;;;;;;14.25;55.99;99150.03;4991546;28;20030;-45
2020/12/04 09:10:07;;;;;;;14.70;2.70;;;;;;;14.36;54.77;99151.44;5003902;28;20426;-50
2020/12/04 09:12:32;;;;;;;3.80;1.88;;;;;;;14.35;55.93;99167.91;4997638;28;20050;-51
2020/12/04 09:14:58;;;;;;;4.18;2.30;;;;;;;14.47;54.94;99153.91;4996059;28;20030;-50
2020/12/04 09:17:23;;;;;;;3.70;1.92;;;;;;;14.48;55.59;99159.00;4981466;28;20030;-48
2020/12/04 09:19:49;;;;;;;10.73;2.25;;;;;;;14.46;55.26;99163.91;4993150;28;20493;-49
2020/12/04 09:22:15;;;;;;;8.48;3.00;;;;;;;14.46;54.80;99155.81;4992523;28;20463;-49
2020/12/04 09:24:42;;;;;;;11.40;2.78;;;;;;;14.50;54.94;99153.31;4993024;28;20034;-48
2020/12/04 09:27:08;;;;;;;6.30;2.58;;;;;;;14.52;55.01;99154.56;4992189;28;20438;-47
2020/12/04 09:29:35;;;;;;;11.30;4.20;;;;;;;14.56;55.28;99166.34;4992902;28;20038;-46
2020/12/04 09:32:09;;;;;;;1.98;1.40;;;;;;;14.64;54.33;99159.47;4992637;28;20113;-46
2020/12/04 09:34:35;;;;;;;4.15;1.73;;;;;;;14.78;54.47;99161.31;4992031;28;20116;-47
2020/12/04 09:37:18;;;;;;;16.33;2.13;;;;;;;15.02;54.52;99175.31;4996075;28;20066;-47
2020/12/04 09:39:45;;;;;;;13.52;2.70;;;;;;;15.16;53.99;99179.84;4990344;28;20038;-45
2020/12/04 09:42:13;;;;;;;18.70;3.17;;;;;;;15.21;53.59;99167.03;4991657;28;20053;-48
2020/12/04 09:44:39;;;;;;;4.10;1.90;;;;;;;15.13;54.16;99165.09;4990228;28;20156;-51
2020/12/04 09:47:05;;;;;;;5.90;1.30;;;;;;;15.50;52.94;99165.78;4990589;28;20050;-48
2020/12/04 09:49:30;;;;;;;3.20;2.22;;;;;;;15.57;52.02;99160.72;4991188;28;20033;-45
2020/12/04 09:51:57;;;;;;;10.48;1.95;;;;;;;15.29;53.65;99160.09;4990913;28;20471;-48
2020/12/04 09:54:26;;;;;;;4.95;1.20;;;;;;;15.19;53.86;99146.84;4991187;28;20085;-47
2020/12/04 09:56:56;;;;;;;8.25;1.70;;;;;;;15.11;54.10;99165.38;4988995;28;20027;-50
2020/12/04 09:59:22;;;;;;;6.53;3.08;;;;;;;15.16;53.53;99172.53;4990531;28;20026;-50
2020/12/04 10:01:49;;;;;;;10.43;2.90;;;;;;;15.20;53.73;99159.22;4990693;28;20034;-51
2020/12/04 10:04:15;;;;;;;3.45;1.33;;;;;;;15.13;53.74;99168.56;4990886;28;20030;-47
2020/12/04 10:06:41;;;;;;;2.22;1.00;;;;;;;15.04;56.17;99146.13;4990905;28;20022;-48
2020/12/04 10:09:06;;;;;;;8.93;1.88;;;;;;;15.12;53.81;99153.47;4990721;28;20046;-49
2020/12/04 10:11:32;;;;;;;14.48;2.33;;;;;;;15.12;54.03;99158.88;4990554;28;20030;-47
2020/12/04 10:13:58;;;;;;;8.20;2.10;;;;;;;15.10;54.22;99150.28;4990236;28;20050;-48
2020/12/04 10:16:24;;;;;;;2.20;0.85;;;;;;;15.00;56.45;99155.13;4991326;28;20039;-47
2020/12/04 10:18:49;;;;;;;12.55;1.75;;;;;;;15.02;55.67;99148.31;5007087;28;20067;-47
2020/12/04 10:21:15;;;;;;;9.38;1.30;;;;;;;15.06;53.96;99148.50;4999640;28;20410;-52
2020/12/04 10:23:40;;;;;;;11.98;2.55;;;;;;;15.02;52.91;99178.00;5001283;28;20050;-49
2020/12/04 10:26:06;;;;;;;11.80;1.50;;;;;;;15.01;53.56;99132.47;5004148;28;20037;-49
2020/12/04 10:28:32;;;;;;;11.45;1.98;;;;;;;15.03;53.87;99151.84;5004449;28;20117;-50
2020/12/04 10:31:01;;;;;;;5.57;1.58;;;;;;;14.97;54.80;99148.47;4999256;28;20044;-50
2020/12/04 10:33:27;;;;;;;7.50;1.58;;;;;;;15.05;53.01;99126.13;4996668;28;20049;-46
2020/12/04 10:35:52;;;;;;;5.45;1.70;;;;;;;15.05;53.22;99136.13;5002010;28;20042;-48
2020/12/04 10:38:18;;;;;;;2.45;0.90;;;;;;;14.98;55.42;99123.06;5002027;28;20045;-49
2020/12/04 10:40:43;;;;;;;19.55;1.50;;;;;;;15.02;53.15;99107.84;5002173;28;20042;-52
2020/12/04 10:43:08;;;;;;;4.07;1.95;;;;;;;14.97;54.16;99096.38;5001101;28;20034;-51
2020/12/04 10:45:34;;;;;;;4.28;1.90;;;;;;;15.00;54.60;99088.47;4999156;28;20030;-52
2020/12/04 10:47:59;;;;;;;5.55;1.70;;;;;;;14.98;56.03;99100.69;4996592;28;20030;-55
2020/12/04 10:50:25;;;;;;;7.80;2.22;;;;;;;14.87;57.47;99095.53;4996000;28;20030;-47
2020/12/04 10:52:50;;;;;;;5.63;2.15;;;;;;;14.87;57.73;99105.53;4993993;28;20126;-47
2020/12/04 10:55:16;;;;;;;10.48;1.63;;;;;;;14.80;59.38;99094.38;4995637;28;20030;-50
2020/12/04 10:57:41;;;;;;;5.55;1.90;;;;;;;14.71;61.41;99108.59;4994165;28;20453;-49
2020/12/04 11:00:07;;;;;;;5.85;2.20;;;;;;;14.64;60.97;99110.94;4994932;28;20062;-50
2020/12/04 11:02:35;;;;;;;7.20;2.10;;;;;;;14.51;59.66;99098.25;4994390;28;20068;-51
2020/12/04 11:07:45;;;;;;;4.72;1.98;;;;;;;14.55;61.28;99080.34;4988497;28;20144;-49
2020/12/04 11:10:10;;;;;;;11.82;2.60;;;;;;;14.60;59.96;99072.16;4996121;28;20085;-49
2020/12/04 11:12:36;;;;;;;9.55;1.45;;;;;;;14.61;60.12;99075.69;4994656;28;20038;-46
2020/12/04 11:15:01;;;;;;;7.15;1.48;;;;;;;14.62;58.99;99075.38;4994841;28;20042;-48
2020/12/04 11:17:27;;;;;;;4.78;2.50;;;;;;;14.60;58.17;99084.88;4995890;28;20038;-47
2020/12/04 11:19:52;;;;;;;20.58;5.95;;;;;;;14.58;58.51;99066.28;4994094;28;20391;-47
2020/12/04 11:22:18;;;;;;;4.18;2.28;;;;;;;14.57;59.10;99070.06;4995698;28;20038;-51
2020/12/04 11:24:44;;;;;;;5.97;1.90;;;;;;;14.52;59.09;99070.97;4994582;28;20038;-46
2020/12/04 11:27:10;;;;;;;4.15;1.35;;;;;;;14.48;59.12;99069.19;4995851;28;20057;-47
2020/12/04 11:29:36;;;;;;;8.05;1.55;;;;;;;14.54;58.02;99054.50;4994380;28;20034;-51
2020/12/04 11:32:01;;;;;;;9.45;1.73;;;;;;;14.53;59.88;99069.06;4997426;28;20038;-48
2020/12/04 11:34:27;;;;;;;1.40;1.08;;;;;;;14.49;59.28;99060.00;4995727;28;20038;-49
2020/12/04 11:36:52;;;;;;;2.15;1.00;;;;;;;14.51;58.04;99060.50;4993703;28;20121;-45